Time;durP1;ratioP1;P1;durP2;ratioP2;P2;SDS_P1;SDS_P2;PMS_P1;PMS_P2;Temp;Humidity;BMP_temperature;BMP_pressure;BME280_temperature;BME280_humidity;BME280_pressure;Samples;Min_cycle;Max_cycle;Signal;HPM_P1;HPM_P2
2022/09/16 00:00:30;;;;;;;5.35;2.10;;;13.80;99.90;;;;;;5042596;28;20243;-82
2022/09/16 00:02:57;;;;;;;3.05;2.30;;;13.70;99.90;;;;;;5065468;28;20192;-81
2022/09/16 00:05:25;;;;;;;5.65;2.50;;;13.80;99.90;;;;;;5060141;28;20246;-84
2022/09/16 00:07:52;;;;;;;3.45;2.45;;;13.80;99.90;;;;;;5054387;28;20227;-84
2022/09/16 00:10:20;;;;;;;3.05;1.90;;;13.80;99.90;;;;;;5042800;28;20246;-83
2022/09/16 00:12:48;;;;;;;2.78;2.22;;;13.70;99.90;;;;;;5051393;28;20271;-84
2022/09/16 00:15:16;;;;;;;5.93;2.90;;;13.70;99.90;;;;;;5050507;28;20250;-84
2022/09/16 00:17:43;;;;;;;5.82;2.63;;;13.70;99.90;;;;;;5044977;28;20229;-85
2022/09/16 00:20:10;;;;;;;3.17;2.33;;;13.90;99.90;;;;;;5044206;28;20192;-84
2022/09/16 00:22:37;;;;;;;3.25;2.42;;;13.70;99.90;;;;;;5043340;28;20300;-84
2022/09/16 00:25:05;;;;;;;1.90;1.70;;;13.50;99.90;;;;;;5050572;28;20361;-82
2022/09/16 00:27:32;;;;;;;2.38;2.22;;;13.50;99.90;;;;;;5049838;28;20258;-83
2022/09/16 00:29:59;;;;;;;3.53;3.20;;;13.50;99.90;;;;;;5046821;28;20201;-82
2022/09/16 00:32:26;;;;;;;3.70;2.05;;;13.40;99.90;;;;;;5044679;28;20200;-81
2022/09/16 00:34:53;;;;;;;5.22;2.05;;;13.60;99.90;;;;;;5024132;28;20201;-82
2022/09/16 00:37:20;;;;;;;2.38;2.17;;;13.80;99.90;;;;;;5050688;28;20530;-82
2022/09/16 00:39:48;;;;;;;3.88;2.30;;;13.70;99.90;;;;;;5049670;28;20346;-84
2022/09/16 00:42:16;;;;;;;2.67;2.30;;;13.70;99.90;;;;;;5029437;28;20241;-81
2022/09/16 00:44:55;;;;;;;2.53;2.20;;;13.70;99.90;;;;;;5043603;28;20406;-81
2022/09/16 00:47:29;;;;;;;4.72;1.95;;;13.70;99.90;;;;;;5049635;28;20204;-81
2022/09/16 00:50:01;;;;;;;2.85;2.50;;;13.70;99.90;;;;;;5048756;28;20193;-82
2022/09/16 00:52:30;;;;;;;2.17;1.83;;;13.60;99.90;;;;;;5047829;28;20238;-83
2022/09/16 00:55:00;;;;;;;3.58;2.58;;;13.70;99.90;;;;;;5032070;28;20200;-82
2022/09/16 00:57:27;;;;;;;2.00;1.80;;;13.70;99.90;;;;;;5050568;28;20530;-82
2022/09/16 00:59:55;;;;;;;3.50;2.10;;;13.70;99.90;;;;;;5051014;28;20195;-82
2022/09/16 01:02:23;;;;;;;2.05;1.85;;;13.80;99.90;;;;;;5055194;28;20254;-81
2022/09/16 01:04:59;;;;;;;2.42;1.88;;;14.00;99.90;;;;;;5034496;28;20203;-82
2022/09/16 01:07:41;;;;;;;2.17;1.95;;;14.10;99.90;;;;;;5055325;28;20234;-82
2022/09/16 01:10:08;;;;;;;1.90;1.80;;;13.90;99.90;;;;;;5023843;28;20279;-82
2022/09/16 01:12:36;;;;;;;2.55;1.80;;;14.10;99.90;;;;;;5042754;28;20212;-83
2022/09/16 01:15:05;;;;;;;1.70;1.60;;;14.10;99.90;;;;;;5048930;28;20661;-82
2022/09/16 01:18:00;;;;;;;4.13;2.30;;;14.20;99.90;;;;;;5030941;28;20225;-83
2022/09/16 01:20:58;;;;;;;2.03;1.77;;;14.10;99.90;;;;;;5054803;28;20192;-81
2022/09/16 01:23:34;;;;;;;6.72;2.67;;;14.10;99.90;;;;;;5034941;28;20424;-82
2022/09/16 01:26:23;;;;;;;3.30;1.48;;;14.30;99.90;;;;;;5052376;28;20213;-83
2022/09/16 01:29:13;;;;;;;6.00;2.00;;;14.30;99.90;;;;;;5040681;28;20204;-82
2022/09/16 01:32:05;;;;;;;2.67;2.03;;;14.30;99.90;;;;;;5044544;28;20197;-81
2022/09/16 01:34:47;;;;;;;2.10;1.90;;;14.30;99.90;;;;;;5044636;28;20201;-82
2022/09/16 01:37:28;;;;;;;2.45;1.85;;;14.40;99.90;;;;;;5051562;28;20196;-82
2022/09/16 01:40:27;;;;;;;2.90;2.40;;;14.30;99.90;;;;;;5037735;28;20242;-83
2022/09/16 01:43:16;;;;;;;1.50;1.40;;;14.30;99.90;;;;;;5034617;28;20207;-82
2022/09/16 01:45:57;;;;;;;1.88;1.52;;;14.20;99.90;;;;;;5034729;28;20242;-82
2022/09/16 01:48:59;;;;;;;7.18;2.08;;;14.50;99.90;;;;;;5047157;28;20199;-81
2022/09/16 01:51:39;;;;;;;3.45;2.08;;;14.40;99.90;;;;;;5052491;28;20495;-83
2022/09/16 01:54:15;;;;;;;4.90;1.95;;;14.40;99.90;;;;;;5048948;28;20196;-82
2022/09/16 01:57:10;;;;;;;7.88;2.20;;;14.50;99.90;;;;;;5055170;28;20205;-83
2022/09/16 01:59:47;;;;;;;2.20;1.80;;;14.60;99.90;;;;;;5038242;28;20206;-81
2022/09/16 02:02:30;;;;;;;5.72;1.95;;;14.60;99.90;;;;;;5024320;28;20249;-82
2022/09/16 02:05:01;;;;;;;3.35;1.40;;;14.50;99.90;;;;;;5035596;28;20229;-81
2022/09/16 02:07:34;;;;;;;2.78;1.77;;;14.40;99.90;;;;;;5058262;28;20215;-82
2022/09/16 02:10:11;;;;;;;2.85;1.55;;;14.30;99.90;;;;;;5062669;28;20241;-82
2022/09/16 02:12:42;;;;;;;3.95;1.85;;;14.30;99.90;;;;;;5056862;28;20188;-82
2022/09/16 02:15:17;;;;;;;2.33;1.35;;;14.30;99.90;;;;;;5060337;28;20211;-84
2022/09/16 02:17:55;;;;;;;4.82;1.80;;;14.20;99.90;;;;;;5057710;28;20345;-84
2022/09/16 02:20:26;;;;;;;5.15;1.95;;;14.10;99.90;;;;;;5025448;28;20483;-85
2022/09/16 02:22:59;;;;;;;2.85;1.60;;;14.20;99.90;;;;;;5042185;28;20197;-84
2022/09/16 02:25:28;;;;;;;4.85;2.63;;;14.00;99.90;;;;;;5052017;28;20195;-84
2022/09/16 02:27:58;;;;;;;3.03;1.73;;;14.00;99.90;;;;;;5030817;28;20218;-84
2022/09/16 02:30:25;;;;;;;1.92;1.83;;;14.00;99.90;;;;;;5056321;28;20234;-84
2022/09/16 02:32:59;;;;;;;2.47;1.50;;;13.90;99.90;;;;;;5042637;28;20200;-84
2022/09/16 02:35:28;;;;;;;2.55;2.35;;;13.90;99.90;;;;;;5049030;28;20196;-83
2022/09/16 02:38:09;;;;;;;1.88;1.25;;;13.90;99.90;;;;;;5048414;28;20216;-84
2022/09/16 02:40:58;;;;;;;2.85;1.58;;;13.90;99.90;;;;;;5032720;28;20204;-82
2022/09/16 02:43:26;;;;;;;4.32;1.85;;;13.80;99.90;;;;;;5047830;28;20242;-83
2022/09/16 02:46:03;;;;;;;1.73;1.63;;;13.80;99.90;;;;;;5025692;28;20238;-83
2022/09/16 02:48:36;;;;;;;1.85;1.58;;;13.80;99.90;;;;;;5051819;28;20208;-83
2022/09/16 02:51:15;;;;;;;2.55;2.35;;;13.80;99.90;;;;;;5037518;28;20386;-84
2022/09/16 02:54:01;;;;;;;1.40;1.30;;;13.60;99.90;;;;;;5048278;28;20205;-85
2022/09/16 02:56:35;;;;;;;1.50;1.40;;;13.50;99.90;;;;;;5037556;28;20237;-83
2022/09/16 02:59:04;;;;;;;4.10;1.50;;;13.60;99.90;;;;;;5037008;28;20211;-84
2022/09/16 03:01:35;;;;;;;3.95;1.52;;;13.60;99.90;;;;;;5033385;28;20204;-83
2022/09/16 03:04:03;;;;;;;2.15;1.40;;;13.70;99.90;;;;;;5053237;28;20224;-84
2022/09/16 03:06:34;;;;;;;3.13;1.67;;;13.80;99.90;;;;;;5051477;28;20209;-84
2022/09/16 03:09:05;;;;;;;1.90;1.40;;;13.80;99.90;;;;;;5045661;28;20314;-85
2022/09/16 03:11:52;;;;;;;2.40;1.25;;;14.00;99.90;;;;;;5052752;28;20203;-83
2022/09/16 03:14:28;;;;;;;1.67;1.10;;;14.20;99.90;;;;;;5047314;28;20457;-83
2022/09/16 03:17:17;;;;;;;2.33;1.70;;;14.10;99.90;;;;;;5051208;28;20200;-84
2022/09/16 03:19:59;;;;;;;3.47;1.88;;;14.20;99.90;;;;;;5055378;28;20285;-84
2022/09/16 03:22:35;;;;;;;1.80;1.70;;;14.10;99.90;;;;;;5061800;28;20206;-85
2022/09/16 03:25:16;;;;;;;4.15;2.13;;;14.00;99.90;;;;;;5053355;28;20189;-84
2022/09/16 03:27:50;;;;;;;3.03;1.73;;;13.80;99.90;;;;;;5062101;28;20195;-83
2022/09/16 03:30:17;;;;;;;2.85;2.10;;;13.80;99.90;;;;;;5057924;28;20208;-84
2022/09/16 03:33:08;;;;;;;2.00;1.90;;;13.60;99.90;;;;;;5047919;28;20204;-85
2022/09/16 03:35:47;;;;;;;4.50;1.67;;;13.50;99.90;;;;;;5051724;28;20201;-84
2022/09/16 03:38:15;;;;;;;1.70;1.60;;;13.60;99.90;;;;;;5055275;28;20304;-86
2022/09/16 03:40:43;;;;;;;1.88;1.70;;;13.50;99.90;;;;;;5033068;28;20403;-85
2022/09/16 03:43:12;;;;;;;2.55;1.70;;;13.50;99.90;;;;;;5043554;28;20192;-83
2022/09/16 03:45:41;;;;;;;3.03;1.55;;;13.50;99.90;;;;;;5051422;28;20423;-82
2022/09/16 03:48:10;;;;;;;2.05;1.85;;;13.40;99.90;;;;;;5047644;28;20208;-82
2022/09/16 03:50:38;;;;;;;3.55;2.03;;;13.40;99.90;;;;;;5049336;28;20302;-84
2022/09/16 03:53:04;;;;;;;1.88;1.60;;;13.40;99.90;;;;;;5048806;28;20199;-83
2022/09/16 03:55:32;;;;;;;3.35;2.10;;;13.40;99.90;;;;;;5047940;28;20247;-84
2022/09/16 03:57:59;;;;;;;2.92;1.73;;;13.40;99.90;;;;;;5045303;28;20228;-83
2022/09/16 04:00:28;;;;;;;2.47;2.28;;;13.50;99.90;;;;;;5047945;28;20215;-80
2022/09/16 04:02:55;;;;;;;3.17;2.90;;;13.50;99.90;;;;;;5049535;28;20311;-79
2022/09/16 04:05:22;;;;;;;3.45;2.42;;;13.50;99.90;;;;;;5047898;28;20218;-83
2022/09/16 04:07:49;;;;;;;5.18;2.30;;;13.40;99.90;;;;;;5043738;28;20196;-83
2022/09/16 04:10:17;;;;;;;4.60;2.40;;;13.50;99.90;;;;;;5052741;28;20241;-81
2022/09/16 04:12:43;;;;;;;2.50;2.30;;;13.30;99.90;;;;;;5055995;28;20480;-84
2022/09/16 04:15:11;;;;;;;2.60;2.28;;;13.30;99.90;;;;;;5043540;28;20246;-83
2022/09/16 04:17:38;;;;;;;3.10;2.33;;;13.30;99.90;;;;;;5045725;28;20204;-84
2022/09/16 04:20:07;;;;;;;3.95;3.05;;;13.30;99.90;;;;;;5055412;28;20293;-85
2022/09/16 04:22:34;;;;;;;2.20;2.10;;;13.30;99.90;;;;;;5016610;28;20516;-82
2022/09/16 04:25:01;;;;;;;4.65;2.85;;;13.30;99.90;;;;;;5028719;28;20236;-85
2022/09/16 04:27:27;;;;;;;2.85;2.22;;;13.30;99.90;;;;;;5042107;28;20229;-81
2022/09/16 04:29:55;;;;;;;3.95;2.65;;;13.40;99.90;;;;;;5052958;28;20237;-85
2022/09/16 04:32:22;;;;;;;3.03;2.13;;;13.50;99.90;;;;;;5050749;28;20204;-82
2022/09/16 04:34:49;;;;;;;5.45;2.60;;;13.60;99.90;;;;;;5048582;28;20204;-83
2022/09/16 04:37:15;;;;;;;3.72;2.67;;;13.60;99.90;;;;;;5056240;28;20510;-84
2022/09/16 04:39:42;;;;;;;2.65;2.42;;;13.70;99.90;;;;;;5040674;28;20228;-83
2022/09/16 04:42:11;;;;;;;4.38;2.63;;;13.60;99.90;;;;;;5037991;28;20583;-85
2022/09/16 04:44:38;;;;;;;2.80;2.20;;;13.50;99.90;;;;;;5052416;28;20219;-85
2022/09/16 04:47:07;;;;;;;3.05;2.85;;;13.50;99.90;;;;;;5050781;28;20242;-83
2022/09/16 04:49:34;;;;;;;3.05;2.35;;;13.50;99.90;;;;;;5026006;28;20219;-85
2022/09/16 04:52:02;;;;;;;2.20;2.00;;;13.50;99.90;;;;;;5049327;28;20196;-86
2022/09/16 04:54:28;;;;;;;8.07;2.30;;;13.40;99.90;;;;;;5045571;28;20516;-85
2022/09/16 04:56:56;;;;;;;2.95;2.75;;;13.50;99.90;;;;;;5033994;28;20427;-84
2022/09/16 04:59:24;;;;;;;4.28;1.85;;;13.50;99.90;;;;;;5042843;28;20285;-83
2022/09/16 05:01:51;;;;;;;2.45;2.25;;;13.60;99.90;;;;;;5049382;28;20437;-84
2022/09/16 05:04:18;;;;;;;3.10;2.08;;;13.50;99.90;;;;;;5026930;28;20511;-84
2022/09/16 05:06:45;;;;;;;2.30;2.10;;;13.60;99.90;;;;;;5048284;28;20199;-83
2022/09/16 05:09:13;;;;;;;5.20;2.10;;;13.40;99.90;;;;;;5023413;28;20204;-85
2022/09/16 05:11:41;;;;;;;3.20;3.00;;;13.30;99.90;;;;;;5042129;28;20211;-85
2022/09/16 05:14:12;;;;;;;2.88;2.15;;;13.40;99.90;;;;;;5029393;28;20208;-84
2022/09/16 05:16:40;;;;;;;3.17;2.17;;;13.60;99.90;;;;;;5054583;28;20200;-85
2022/09/16 05:19:09;;;;;;;4.00;3.10;;;13.70;99.90;;;;;;5040113;28;20216;-85
2022/09/16 05:21:37;;;;;;;2.83;2.63;;;13.90;99.90;;;;;;5050081;28;20247;-83
2022/09/16 05:24:09;;;;;;;2.17;1.98;;;14.10;99.90;;;;;;5052684;28;20207;-85
2022/09/16 05:26:38;;;;;;;5.40;3.33;;;14.30;99.90;;;;;;5045719;28;20209;-85
2022/09/16 05:29:09;;;;;;;3.47;2.40;;;14.30;99.90;;;;;;5052351;28;20212;-86
2022/09/16 05:31:40;;;;;;;5.43;3.13;;;14.20;99.90;;;;;;5047229;28;20208;-84
2022/09/16 05:34:16;;;;;;;3.10;2.80;;;14.00;99.90;;;;;;5026773;28;20212;-83
2022/09/16 05:36:43;;;;;;;5.47;2.80;;;14.00;99.90;;;;;;5052486;28;20230;-84
2022/09/16 05:39:11;;;;;;;2.67;2.42;;;14.00;99.90;;;;;;5055519;28;20287;-84
2022/09/16 05:41:58;;;;;;;4.60;3.05;;;13.90;99.90;;;;;;5048759;28;20205;-83
2022/09/16 05:44:27;;;;;;;2.67;2.50;;;14.10;99.90;;;;;;5050360;28;20256;-84
2022/09/16 05:46:54;;;;;;;5.10;2.72;;;14.30;99.90;;;;;;5036443;28;20247;-84
2022/09/16 05:49:20;;;;;;;5.65;3.40;;;14.60;99.90;;;;;;5045257;28;20252;-82
2022/09/16 05:51:49;;;;;;;5.28;2.80;;;15.00;99.90;;;;;;5037822;28;20228;-83
2022/09/16 05:54:19;;;;;;;5.43;2.65;;;15.40;99.90;;;;;;5040165;28;20210;-84
2022/09/16 05:56:46;;;;;;;3.72;2.33;;;15.60;99.90;;;;;;5051234;28;20197;-84
2022/09/16 05:59:15;;;;;;;3.13;2.92;;;15.50;99.90;;;;;;5035082;28;20228;-84
2022/09/16 06:01:43;;;;;;;4.28;3.35;;;15.40;99.90;;;;;;5054424;28;20595;-83
2022/09/16 06:04:11;;;;;;;5.60;2.47;;;15.50;99.90;;;;;;5052382;28;20722;-84
2022/09/16 06:06:41;;;;;;;8.15;2.38;;;15.50;99.90;;;;;;5043600;28;20209;-84
2022/09/16 06:09:20;;;;;;;2.70;2.50;;;15.50;99.90;;;;;;5042766;28;20210;-82
2022/09/16 06:11:49;;;;;;;6.03;3.42;;;15.50;99.90;;;;;;5029546;28;20551;-84
2022/09/16 06:14:18;;;;;;;3.53;3.15;;;15.60;99.90;;;;;;5048409;28;20214;-82
2022/09/16 06:16:45;;;;;;;13.35;2.28;;;15.80;99.90;;;;;;5036391;28;20474;-85
2022/09/16 06:19:16;;;;;;;8.77;3.03;;;15.70;99.90;;;;;;5046717;28;20230;-83
2022/09/16 06:21:44;;;;;;;4.20;2.70;;;16.00;99.90;;;;;;5045613;28;20662;-84
2022/09/16 06:24:12;;;;;;;3.87;2.50;;;16.40;99.90;;;;;;5020396;28;20499;-84
2022/09/16 06:26:41;;;;;;;4.00;2.20;;;16.90;99.90;;;;;;5056118;28;20453;-85
2022/09/16 06:29:09;;;;;;;2.73;2.50;;;17.00;99.90;;;;;;5040946;28;20453;-83
2022/09/16 06:31:37;;;;;;;6.43;3.10;;;16.90;99.90;;;;;;5039176;28;20820;-87
2022/09/16 06:34:05;;;;;;;2.60;2.40;;;16.70;99.90;;;;;;5035560;28;20551;-85
2022/09/16 06:36:38;;;;;;;4.30;2.10;;;16.30;99.90;;;;;;5041812;28;20521;-85
2022/09/16 06:39:11;;;;;;;5.07;2.30;;;16.10;99.90;;;;;;5049245;28;20475;-87
2022/09/16 06:41:38;;;;;;;3.30;2.53;;;16.50;99.90;;;;;;5052680;28;20483;-85
2022/09/16 06:44:05;;;;;;;4.57;2.17;;;16.70;99.90;;;;;;5045368;28;20499;-86
2022/09/16 06:46:32;;;;;;;6.23;2.57;;;17.50;99.90;;;;;;5047664;28;20440;-82
2022/09/16 06:48:59;;;;;;;2.93;1.93;;;18.80;99.90;;;;;;5063065;28;20414;-84
2022/09/16 06:51:32;;;;;;;2.47;1.93;;;19.90;99.90;;;;;;5058920;28;20544;-88
2022/09/16 06:54:01;;;;;;;3.47;2.70;;;21.10;99.90;;;;;;5028886;28;20488;-85
2022/09/16 06:56:29;;;;;;;5.60;1.70;;;22.20;99.90;;;;;;5051098;28;20482;-82
2022/09/16 06:58:56;;;;;;;4.37;3.10;;;22.50;99.90;;;;;;5044613;28;20525;-85
2022/09/16 07:01:26;;;;;;;6.80;1.60;;;22.30;99.90;;;;;;5043880;28;20466;-83
2022/09/16 07:03:57;;;;;;;6.30;3.20;;;21.60;99.90;;;;;;5032936;28;20468;-83
2022/09/16 07:06:27;;;;;;;2.27;1.77;;;20.80;99.90;;;;;;5029636;28;20452;-85
2022/09/16 07:09:13;;;;;;;1.47;1.37;;;19.90;99.90;;;;;;5040927;28;20428;-84
2022/09/16 07:11:40;;;;;;;7.27;1.67;;;19.30;99.90;;;;;;5043802;28;20462;-85
2022/09/16 07:14:08;;;;;;;3.20;2.90;;;18.80;99.90;;;;;;5040919;28;20420;-84
2022/09/16 07:16:35;;;;;;;2.70;1.70;;;18.30;99.90;;;;;;5046735;28;20466;-85
2022/09/16 07:19:03;;;;;;;4.03;2.27;;;17.70;99.90;;;;;;5043833;28;20583;-88
2022/09/16 07:21:30;;;;;;;3.17;1.90;;;17.20;99.90;;;;;;5031711;28;20478;-85
2022/09/16 07:23:59;;;;;;;2.60;2.00;;;17.00;99.90;;;;;;5045348;28;20448;-89
2022/09/16 07:26:29;;;;;;;2.20;1.70;;;17.10;99.90;;;;;;5052386;28;20424;-88
2022/09/16 07:28:59;;;;;;;4.10;2.60;;;17.50;99.90;;;;;;5030474;28;20434;-85
2022/09/16 07:31:28;;;;;;;1.87;1.70;;;17.90;99.90;;;;;;5053378;28;20435;-85
2022/09/16 07:33:57;;;;;;;1.80;1.50;;;18.40;99.90;;;;;;5048990;28;20415;-84
2022/09/16 07:36:38;;;;;;;4.97;2.87;;;18.30;99.90;;;;;;5030013;28;20429;-84
2022/09/16 07:39:05;;;;;;;4.23;1.93;;;18.20;99.90;;;;;;5041945;28;20453;-87
2022/09/16 07:41:35;;;;;;;1.60;1.50;;;17.80;99.90;;;;;;5034538;28;20412;-88
2022/09/16 07:44:04;;;;;;;1.63;1.53;;;17.50;99.90;;;;;;5038524;28;20490;-82
2022/09/16 07:46:32;;;;;;;6.93;1.90;;;17.20;99.90;;;;;;5057562;28;20447;-84
2022/09/16 07:49:01;;;;;;;1.60;1.50;;;17.00;99.90;;;;;;5090796;23;20490;-85
2022/09/16 07:51:29;;;;;;;1.70;1.60;;;16.90;99.90;;;;;;5040812;28;20479;-83
2022/09/16 07:53:59;;;;;;;1.43;1.40;;;16.70;99.90;;;;;;5040259;28;20449;-83
2022/09/16 07:56:27;;;;;;;2.30;1.40;;;16.80;99.90;;;;;;5028331;28;20524;-87
2022/09/16 07:58:56;;;;;;;2.30;1.73;;;17.00;99.90;;;;;;5034844;28;20508;-85
2022/09/16 08:01:24;;;;;;;6.30;2.63;;;17.30;99.90;;;;;;5039992;28;20492;-84
2022/09/16 08:03:51;;;;;;;1.70;1.47;;;17.60;99.90;;;;;;5025253;28;20449;-85
2022/09/16 08:06:21;;;;;;;3.33;2.60;;;17.90;99.90;;;;;;5033407;28;20657;-85
2022/09/16 08:08:51;;;;;;;2.10;2.00;;;17.80;99.90;;;;;;5028536;28;20496;-83
2022/09/16 08:11:21;;;;;;;1.60;1.50;;;17.50;99.90;;;;;;5022218;28;20452;-85
2022/09/16 08:13:48;;;;;;;3.60;2.17;;;17.80;99.90;;;;;;5030652;28;20497;-83
2022/09/16 08:16:17;;;;;;;2.50;2.00;;;18.00;99.90;;;;;;5036135;28;20454;-85
2022/09/16 08:18:46;;;;;;;3.13;1.67;;;18.40;99.90;;;;;;5027538;28;20429;-83
2022/09/16 08:21:15;;;;;;;4.53;1.90;;;18.40;99.90;;;;;;5029642;28;20435;-86
2022/09/16 08:23:42;;;;;;;3.83;1.87;;;18.70;99.90;;;;;;5033401;28;20447;-84
2022/09/16 08:26:11;;;;;;;2.60;1.80;;;18.80;99.90;;;;;;5031241;28;20474;-83
2022/09/16 08:28:40;;;;;;;1.57;1.33;;;19.10;99.90;;;;;;5036017;28;20421;-83
2022/09/16 08:31:27;;;;;;;2.83;1.83;;;19.40;99.90;;;;;;5036358;28;20439;-83
2022/09/16 08:33:55;;;;;;;2.30;1.17;;;19.60;99.90;;;;;;5022948;28;20447;-84
2022/09/16 08:36:23;;;;;;;1.60;1.50;;;19.40;99.90;;;;;;5021326;28;20526;-86
2022/09/16 08:38:53;;;;;;;1.67;1.47;;;19.30;99.90;;;;;;5020887;28;20416;-81
2022/09/16 08:41:32;;;;;;;2.47;1.40;;;18.90;99.90;;;;;;5025656;28;20618;-84
2022/09/16 08:44:36;;;;;;;6.00;1.60;;;19.10;99.90;;;;;;5018570;28;20417;-86
2022/09/16 08:47:37;;;;;;;2.57;1.20;;;19.00;99.90;;;;;;5024708;28;20424;-85
2022/09/16 08:50:13;;;;;;;1.33;1.23;;;19.30;99.90;;;;;;5026501;28;20453;-83
2022/09/16 08:52:42;;;;;;;3.33;1.37;;;18.80;99.90;;;;;;5034517;28;20525;-84
2022/09/16 08:55:17;;;;;;;2.43;1.80;;;18.70;99.90;;;;;;5034877;28;20523;-82
2022/09/16 08:58:14;;;;;;;1.07;1.03;;;17.90;99.90;;;;;;5017256;28;20449;-87
2022/09/16 09:00:43;;;;;;;1.10;1.00;;;17.50;99.90;;;;;;5017233;28;20482;-83
2022/09/16 09:03:33;;;;;;;3.03;1.43;;;17.70;99.90;;;;;;5027214;28;20412;-84
2022/09/16 09:06:21;;;;;;;1.63;1.53;;;17.90;99.90;;;;;;5023701;28;20690;-87
2022/09/16 09:09:06;;;;;;;1.20;1.10;;;18.50;99.90;;;;;;5019494;28;20500;-86
2022/09/16 09:11:49;;;;;;;5.50;1.70;;;17.80;99.90;;;;;;5028782;28;20453;-85
2022/09/16 09:15:17;;;;;;;1.47;1.37;;;17.10;99.90;;;;;;5002487;28;20442;-87
2022/09/16 09:18:26;;;;;;;4.50;2.03;;;16.80;99.90;;;;;;5022315;28;20440;-85
2022/09/16 09:21:38;;;;;;;4.33;1.83;;;17.00;99.90;;;;;;5027971;28;20488;-86
2022/09/16 09:24:40;;;;;;;2.37;1.50;;;17.60;99.90;;;;;;4937124;29;20506;-87
2022/09/16 09:27:19;;;;;;;4.47;1.43;;;18.30;99.90;;;;;;5027819;28;20455;-84
2022/09/16 09:30:17;;;;;;;2.90;1.57;;;18.90;99.90;;;;;;5025259;28;20420;-86
2022/09/16 09:33:13;;;;;;;1.13;1.00;;;19.60;99.90;;;;;;5026290;28;20417;-88
2022/09/16 09:36:35;;;;;;;0.80;0.80;;;20.40;99.90;;;;;;5023273;28;20393;-86
2022/09/16 09:39:31;;;;;;;1.63;1.23;;;21.40;99.90;;;;;;5021308;28;20408;-86
2022/09/16 09:42:15;;;;;;;2.20;1.03;;;21.50;99.90;;;;;;4972333;28;20526;-90
2022/09/16 09:45:03;;;;;;;2.73;1.30;;;21.00;99.90;;;;;;5037356;28;20417;-87
2022/09/16 09:47:42;;;;;;;1.27;1.17;;;20.30;99.90;;;;;;5035700;28;21014;-87
2022/09/16 09:50:25;;;;;;;3.70;0.90;;;19.60;99.90;;;;;;5033034;28;20430;-85
2022/09/16 09:53:03;;;;;;;1.67;1.30;;;19.10;99.90;;;;;;5019203;28;20489;-88
2022/09/16 09:55:34;;;;;;;2.70;1.00;;;18.60;99.90;;;;;;5342116;22;20459;-88
2022/09/16 09:58:38;;;;;;;5.00;1.70;;;18.90;99.90;;;;;;5307444;22;20477;-88
2022/09/16 10:01:07;;;;;;;5.17;2.90;;;19.70;99.90;;;;;;5016248;28;20487;-89
2022/09/16 10:03:36;;;;;;;4.00;1.13;;;20.20;99.90;;;;;;5027327;28;20540;-89
2022/09/16 10:08:49;;;;;;;1.07;1.00;;;20.90;99.90;;;;;;5056332;22;20463;-84
2022/09/16 10:13:54;;;;;;;1.67;1.37;;;20.40;99.90;;;;;;5328144;22;20480;-87
2022/09/16 10:16:26;;;;;;;1.27;1.17;;;20.00;99.90;;;;;;5097448;28;20456;-90
2022/09/16 10:19:28;;;;;;;2.07;1.00;;;19.50;99.90;;;;;;5077479;28;20434;-86
2022/09/16 10:22:18;;;;;;;1.13;0.90;;;19.00;99.90;;;;;;5083519;28;20443;-87
2022/09/16 10:24:56;;;;;;;0.73;0.70;;;18.70;99.90;;;;;;5079519;28;20441;-89
2022/09/16 10:27:34;;;;;;;0.80;0.80;;;18.60;99.90;;;;;;5075974;28;20455;-85
2022/09/16 10:30:20;;;;;;;3.50;1.37;;;18.50;99.90;;;;;;5080588;28;20444;-86
2022/09/16 10:32:52;;;;;;;1.33;1.20;;;18.50;99.90;;;;;;5084435;28;20440;-86
2022/09/16 10:35:23;;;;;;;1.60;1.23;;;18.50;99.90;;;;;;5083774;28;20391;-87
2022/09/16 10:37:53;;;;;;;2.97;2.03;;;18.40;99.90;;;;;;5089998;28;20427;-86
2022/09/16 10:40:22;;;;;;;3.10;2.00;;;18.60;99.90;;;;;;5083953;28;20465;-89
2022/09/16 10:42:52;;;;;;;1.80;0.70;;;18.50;99.90;;;;;;5074749;28;20465;-84
2022/09/16 10:45:24;;;;;;;2.43;1.20;;;18.50;99.90;;;;;;5068656;28;20426;-84
2022/09/16 10:47:55;;;;;;;2.10;0.97;;;18.60;99.90;;;;;;5081023;28;20465;-88
2022/09/16 10:50:22;;;;;;;2.63;0.90;;;18.60;99.90;;;;;;5068825;28;20678;-87
2022/09/16 10:52:50;;;;;;;2.07;0.83;;;18.60;99.90;;;;;;5070459;28;20450;-82
2022/09/16 10:55:21;;;;;;;1.13;0.70;;;18.40;99.90;;;;;;5078559;28;20430;-87
2022/09/16 11:00:26;;;;;;;3.13;1.33;;;18.20;99.90;;;;;;5077393;23;20498;-83
2022/09/16 11:03:11;;;;;;;1.40;0.90;;;18.30;99.90;;;;;;5072918;28;20437;-87
2022/09/16 11:06:15;;;;;;;5.37;2.60;;;18.30;99.90;;;;;;5343078;22;20475;-89
2022/09/16 11:09:31;;;;;;;2.37;0.83;;;18.30;99.90;;;;;;5089480;28;20416;-85
2022/09/16 11:12:00;;;;;;;1.17;1.17;;;18.60;99.90;;;;;;5101264;28;20516;-87
2022/09/16 11:15:00;;;;;;;1.80;0.77;;;18.80;99.90;;;;;;5120921;28;20492;-88
2022/09/16 11:17:56;;;;;;;1.40;1.30;;;18.80;99.90;;;;;;5256323;22;20469;-86
2022/09/16 11:20:44;;;;;;;1.50;1.37;;;18.80;99.90;;;;;;5101746;28;20449;-86
2022/09/16 11:23:36;;;;;;;3.73;0.87;;;18.90;99.90;;;;;;5119428;22;20500;-89
2022/09/16 11:26:29;;;;;;;1.20;1.10;;;18.60;99.90;;;;;;5079700;28;20427;-85
2022/09/16 11:29:24;;;;;;;1.13;0.73;;;18.40;99.90;;;;;;5059555;28;20630;-86
2022/09/16 11:35:22;;;;;;;1.73;0.90;;;18.60;99.90;;;;;;5258375;22;20507;-89
2022/09/16 11:37:59;;;;;;;1.50;0.97;;;18.80;99.90;;;;;;5091589;28;20438;-86
2022/09/16 11:40:41;;;;;;;1.70;1.03;;;18.70;99.90;;;;;;5085290;28;20736;-85
2022/09/16 11:43:37;;;;;;;1.57;1.13;;;18.20;99.90;;;;;;5076983;28;20556;-85
2022/09/16 11:46:22;;;;;;;1.53;0.60;;;18.30;99.90;;;;;;5080147;28;20466;-90
2022/09/16 11:49:03;;;;;;;1.10;1.00;;;18.90;99.90;;;;;;5182819;23;20460;-88
2022/09/16 11:54:20;;;;;;;2.30;1.30;;;19.10;99.90;;;;;;5254512;22;20501;-88
2022/09/16 11:57:11;;;;;;;6.43;0.83;;;18.90;99.90;;;;;;5062791;28;20414;-88
2022/09/16 11:59:53;;;;;;;4.10;1.13;;;18.90;99.90;;;;;;5071393;28;20411;-89
2022/09/16 12:02:30;;;;;;;1.33;0.97;;;18.70;99.90;;;;;;5134520;22;20447;-89
2022/09/16 12:08:01;;;;;;;1.03;0.80;;;19.00;99.90;;;;;;5345250;23;20536;-88
2022/09/16 12:13:21;;;;;;;3.83;2.20;;;19.00;99.90;;;;;;5424570;22;20419;-87
2022/09/16 12:15:53;;;;;;;1.70;0.70;;;19.20;99.90;;;;;;5477482;22;20458;-86
2022/09/16 12:18:32;;;;;;;1.47;0.80;;;19.20;99.90;;;;;;5362699;22;20467;-85
2022/09/16 12:26:32;;;;;;;1.77;1.00;;;19.00;99.90;;;;;;5418517;22;20450;-87
2022/09/16 12:36:59;;;;;;;1.77;0.90;;;19.10;99.90;;;;;;5359617;22;20471;-86
2022/09/16 12:39:28;;;;;;;1.13;0.97;;;19.20;99.90;;;;;;5448814;22;20484;-85
2022/09/16 12:42:12;;;;;;;2.60;1.53;;;19.40;99.90;;;;;;5468426;23;20569;-86
2022/09/16 12:50:56;;;;;;;0.70;0.70;;;19.30;99.90;;;;;;5029707;28;20862;-85
2022/09/16 12:56:35;;;;;;;0.83;0.83;;;19.50;99.90;;;;;;5094031;22;20482;-89
2022/09/16 13:04:39;;;;;;;2.60;1.03;;;19.40;99.90;;;;;;5168680;22;20452;-87
2022/09/16 13:12:26;;;;;;;1.00;0.80;;;19.30;99.90;;;;;;5505622;22;20460;-85
2022/09/16 13:17:39;;;;;;;4.70;2.20;;;19.60;99.90;;;;;;5129207;23;20466;-85
2022/09/16 13:20:18;;;;;;;1.43;0.90;;;19.70;99.90;;;;;;5355033;22;20706;-85
2022/09/16 13:23:10;;;;;;;2.10;1.00;;;19.50;99.90;;;;;;5446808;22;20477;-84
2022/09/16 13:25:56;;;;;;;1.00;1.00;;;19.40;99.90;;;;;;5047444;28;20404;-84
2022/09/16 13:34:20;;;;;;;3.20;1.07;;;20.00;99.90;;;;;;4368834;23;20463;-88
2022/09/16 13:36:47;;;;;;;3.67;1.00;;;19.50;99.90;;;;;;5046364;28;20415;-87
2022/09/16 13:39:28;;;;;;;1.20;1.00;;;19.10;99.90;;;;;;5039994;28;20423;-86
2022/09/16 13:42:16;;;;;;;5.63;1.33;;;18.90;99.90;;;;;;5048857;28;20772;-86
2022/09/16 13:44:43;;;;;;;0.80;0.80;;;18.30;99.90;;;;;;5027280;28;20435;-88
2022/09/16 13:47:13;;;;;;;1.10;1.00;;;17.70;99.90;;;;;;5028934;28;20441;-85
2022/09/16 13:49:55;;;;;;;1.57;0.80;;;17.30;99.90;;;;;;5046170;28;21039;-88
2022/09/16 13:52:31;;;;;;;0.83;0.80;;;17.10;99.90;;;;;;5026770;28;20412;-86
2022/09/16 13:55:05;;;;;;;2.20;1.00;;;16.90;99.90;;;;;;5042625;28;20438;-86
2022/09/16 14:00:20;;;;;;;0.80;0.70;;;16.70;99.90;;;;;;5050337;28;20440;-86
2022/09/16 14:03:26;;;;;;;0.77;0.77;;;16.90;99.90;;;;;;5108451;22;20470;-89
2022/09/16 14:09:18;;;;;;;0.70;0.63;;;17.00;99.90;;;;;;5355738;22;20764;-87
2022/09/16 14:12:06;;;;;;;4.13;0.90;;;16.90;99.90;;;;;;5407835;22;20546;-84
2022/09/16 14:19:46;;;;;;;0.50;0.50;;;17.00;99.90;;;;;;5402736;22;21822;-87
2022/09/16 14:22:21;;;;;;;1.00;0.90;;;17.10;99.90;;;;;;5298249;22;20485;-88
2022/09/16 14:24:49;;;;;;;1.03;0.80;;;17.10;99.90;;;;;;5240169;22;20445;-85
2022/09/16 14:27:35;;;;;;;1.10;0.90;;;17.10;99.90;;;;;;5412620;22;20439;-86
2022/09/16 14:30:15;;;;;;;0.67;0.67;;;17.10;99.90;;;;;;5130902;23;20513;-87
2022/09/16 14:32:44;;;;;;;1.07;0.77;;;17.00;99.90;;;;;;5099466;22;20494;-90
2022/09/16 14:40:25;;;;;;;2.63;1.23;;;16.70;99.90;;;;;;5485845;22;20981;-88
2022/09/16 14:53:35;;;;;;;1.17;1.07;;;16.90;99.90;;;;;;5271506;22;20499;-88
2022/09/16 14:58:39;;;;;;;1.87;1.77;;;17.00;99.90;;;;;;6158950;22;21312;-87